Time;durP1;ratioP1;P1;durP2;ratioP2;P2;SDS_P1;SDS_P2;PMS_P1;PMS_P2;Temp;Humidity;BMP_temperature;BMP_pressure;BME280_temperature;BME280_humidity;BME280_pressure;Samples;Min_cycle;Max_cycle;Signal;HPM_P1;HPM_P2
2021/04/16 00:00:57;;;;;;;7.28;4.70;;;;;;;3.98;73.26;100711.66;2169866;81;34060;-65
2021/04/16 00:04:00;;;;;;;9.30;5.05;;;;;;;3.98;73.14;100707.22;2169786;82;30216;-62
2021/04/16 00:07:02;;;;;;;7.97;4.78;;;;;;;3.97;73.12;100712.56;2169989;82;27795;-63
2021/04/16 00:10:12;;;;;;;6.87;4.67;;;;;;;3.94;73.11;100707.73;2169893;82;28834;-64
2021/04/16 00:13:16;;;;;;;6.65;4.55;;;;;;;3.94;73.10;100714.82;2169949;82;31179;-64
2021/04/16 00:16:23;;;;;;;6.80;4.70;;;;;;;3.92;73.20;100712.64;2170129;82;34133;-64
2021/04/16 00:19:25;;;;;;;5.03;4.05;;;;;;;3.90;73.12;100714.44;2175374;80;30184;-65
2021/04/16 00:22:27;;;;;;;7.22;5.20;;;;;;;3.86;73.11;100710.96;2177617;80;27933;-64
2021/04/16 00:25:32;;;;;;;7.08;4.67;;;;;;;3.85;73.20;100704.34;2206924;80;28828;-65
2021/04/16 00:28:34;;;;;;;4.78;3.67;;;;;;;3.87;73.23;100709.17;2203193;80;31126;-66
2021/04/16 00:31:50;;;;;;;6.58;4.80;;;;;;;3.85;73.19;100699.93;2198459;81;33120;-66
2021/04/16 00:34:41;;;;;;;;;;;;;;;3.88;73.22;100705.63;2198933;81;29154;-64
2021/04/16 00:37:43;;;;;;;7.22;4.28;;;;;;;3.91;73.38;100701.61;2190307;80;27609;-65
2021/04/16 00:40:53;;;;;;;7.12;5.58;;;;;;;3.93;73.29;100698.48;2194098;80;29117;-65
2021/04/16 00:43:56;;;;;;;6.00;4.53;;;;;;;3.92;73.27;100697.59;2178016;81;31199;-65
2021/04/16 00:47:02;;;;;;;6.17;4.62;;;;;;;3.91;73.20;100693.19;2202548;80;33117;-64
2021/04/16 00:50:12;;;;;;;5.35;4.40;;;;;;;3.89;73.07;100688.83;2217736;80;30035;-65
2021/04/16 00:53:16;;;;;;;7.58;5.78;;;;;;;3.83;73.08;100683.61;2181086;80;28137;-65
2021/04/16 00:56:18;;;;;;;9.35;5.85;;;;;;;3.80;73.21;100687.19;2188898;80;28887;-65
2021/04/16 00:59:25;;;;;;;9.88;5.87;;;;;;;3.78;73.24;100685.02;2178370;80;32123;-65
2021/04/16 01:02:27;;;;;;;8.38;6.22;;;;;;;3.69;73.20;100691.33;2178900;81;33136;-66
2021/04/16 01:05:30;;;;;;;7.97;5.75;;;;;;;3.67;73.38;100689.61;2179132;80;29168;-65
2021/04/16 01:08:33;;;;;;;7.70;6.60;;;;;;;3.67;73.45;100695.77;2178960;81;27703;-66
2021/04/16 01:11:35;;;;;;;9.83;7.40;;;;;;;3.68;73.40;100692.22;2178867;81;28894;-64
2021/04/16 01:14:41;;;;;;;10.90;7.85;;;;;;;3.68;73.42;100691.36;2192157;80;32113;-66
2021/04/16 01:17:44;;;;;;;;;;;;;;;3.69;73.49;100690.00;2222247;80;33307;-66
2021/04/16 01:20:49;;;;;;;7.67;6.22;;;;;;;3.69;73.45;100687.34;2227548;79;29179;-66
2021/04/16 01:24:31;;;;;;;9.00;7.50;;;;;;;3.66;73.39;100686.06;2195850;79;28209;-65
2021/04/16 01:27:33;;;;;;;7.37;6.50;;;;;;;3.65;73.52;100681.66;2192188;79;28832;-65
2021/04/16 01:30:36;;;;;;;11.93;6.58;;;;;;;3.59;73.48;100683.09;2166488;81;31168;-65
2021/04/16 01:33:40;;;;;;;7.47;5.80;;;;;;;3.59;73.61;100681.31;2151677;81;33198;-65
2021/04/16 01:36:42;;;;;;;7.70;4.97;;;;;;;3.60;73.66;100682.20;2181254;81;30052;-63
2021/04/16 01:39:45;;;;;;;7.25;5.45;;;;;;;3.60;73.67;100679.09;2180980;81;28232;-65
2021/04/16 01:42:47;;;;;;;8.60;6.15;;;;;;;3.64;73.70;100677.29;2171678;81;29013;-65
2021/04/16 01:46:04;;;;;;;6.83;5.47;;;;;;;3.70;73.76;100674.99;2181000;81;32267;-65
2021/04/16 01:49:06;;;;;;;8.40;6.00;;;;;;;3.70;73.67;100673.67;2180332;81;33166;-66
2021/04/16 01:52:13;;;;;;;7.15;5.95;;;;;;;3.69;73.66;100675.89;2158962;81;29255;-66
2021/04/16 01:55:16;;;;;;;8.03;5.92;;;;;;;3.71;73.66;100678.07;2155577;81;28157;-63
2021/04/16 01:58:18;;;;;;;7.55;5.60;;;;;;;3.69;73.65;100674.10;2180839;81;29781;-66
2021/04/16 02:01:20;;;;;;;8.35;6.75;;;;;;;3.70;73.71;100673.67;2178841;81;31885;-66
2021/04/16 02:04:22;;;;;;;8.78;7.22;;;;;;;3.68;73.69;100672.34;2179864;81;35448;-66
2021/04/16 02:07:26;;;;;;;10.03;7.33;;;;;;;3.67;73.70;100667.09;2162834;81;29208;-64
2021/04/16 02:10:28;;;;;;;8.53;5.60;;;;;;;3.67;73.77;100668.41;2143726;83;27639;-66
2021/04/16 02:13:30;;;;;;;6.90;5.22;;;;;;;3.68;73.74;100668.84;2174744;81;29706;-64
2021/04/16 02:16:34;;;;;;;7.65;6.10;;;;;;;3.69;73.67;100670.59;2181031;81;33645;-65
2021/04/16 02:19:36;;;;;;;8.60;5.30;;;;;;;3.69;73.73;100666.16;2181017;81;33108;-66
2021/04/16 02:22:39;;;;;;;10.40;6.33;;;;;;;3.72;73.78;100667.44;2156544;81;29203;-64
2021/04/16 02:25:41;;;;;;;7.60;5.92;;;;;;;3.73;73.77;100669.19;2167227;81;27650;-64
2021/04/16 02:28:43;;;;;;;10.32;7.53;;;;;;;3.73;73.74;100665.65;2181774;80;28814;-61
2021/04/16 02:31:45;;;;;;;10.43;7.30;;;;;;;3.76;73.86;100671.80;2216573;80;31143;-64
2021/04/16 02:34:47;;;;;;;8.90;6.15;;;;;;;3.78;73.75;100670.44;2217270;80;35453;-65
2021/04/16 02:37:51;;;;;;;9.98;7.20;;;;;;;3.77;73.68;100673.98;2215755;80;29163;-64
2021/04/16 02:40:53;;;;;;;9.35;7.50;;;;;;;3.73;73.64;100668.30;2217160;80;27644;-65
2021/04/16 02:43:55;;;;;;;11.88;7.20;;;;;;;3.72;73.77;100671.88;2212165;80;28881;-64
2021/04/16 02:46:58;;;;;;;9.08;6.22;;;;;;;3.71;73.85;100667.01;2216823;80;33434;-65
2021/04/16 02:50:00;;;;;;;11.75;7.12;;;;;;;3.73;73.89;100666.97;2216685;80;33135;-65
2021/04/16 02:53:02;;;;;;;10.18;7.00;;;;;;;3.76;73.86;100670.91;2192647;79;29778;-65
2021/04/16 02:56:05;;;;;;;8.35;6.90;;;;;;;3.79;73.91;100669.11;2179295;80;27651;-65
2021/04/16 02:59:08;;;;;;;10.08;6.40;;;;;;;3.85;73.98;100669.89;2178689;81;28857;-61
2021/04/16 03:02:11;;;;;;;11.65;6.90;;;;;;;3.88;73.93;100668.09;2179308;80;29821;-65
2021/04/16 03:05:14;;;;;;;10.03;6.40;;;;;;;3.85;73.81;100664.16;2178633;81;33132;-66
2021/04/16 03:08:17;;;;;;;9.28;7.53;;;;;;;3.82;73.83;100660.66;2178719;81;29175;-65
2021/04/16 03:11:20;;;;;;;10.43;7.08;;;;;;;3.78;73.80;100657.19;2180483;80;27653;-66
2021/04/16 03:14:22;;;;;;;8.15;6.35;;;;;;;3.74;73.99;100657.69;2217387;80;28824;-66
2021/04/16 03:17:24;;;;;;;12.00;7.08;;;;;;;3.75;74.06;100661.20;2217462;80;32065;-66
2021/04/16 03:20:27;;;;;;;6.85;6.08;;;;;;;3.73;74.08;100655.94;2210555;80;33131;-66
2021/04/16 03:23:29;;;;;;;8.83;6.00;;;;;;;3.73;74.04;100657.70;2177684;80;29171;-65
2021/04/16 03:26:31;;;;;;;6.90;6.20;;;;;;;3.75;74.15;100655.47;2178721;80;27620;-66
2021/04/16 03:29:33;;;;;;;10.72;6.45;;;;;;;3.77;74.17;100655.44;2191130;80;28840;-66
2021/04/16 03:32:35;;;;;;;10.25;7.40;;;;;;;3.81;74.23;100653.17;2171203;81;32062;-65
2021/04/16 03:35:37;;;;;;;7.97;6.37;;;;;;;3.83;74.20;100651.80;2148781;82;34570;-66
2021/04/16 03:38:39;;;;;;;7.00;5.92;;;;;;;3.85;74.29;100653.98;2112536;84;30528;-64
2021/04/16 03:41:41;;;;;;;8.55;6.90;;;;;;;3.83;74.28;100654.02;2165827;81;27670;-66
2021/04/16 03:44:43;;;;;;;10.78;6.33;;;;;;;3.81;74.28;100651.84;2094993;83;28846;-66
2021/04/16 03:47:46;;;;;;;9.23;7.42;;;;;;;3.78;74.29;100653.21;2128623;83;31142;-65
2021/04/16 03:50:48;;;;;;;11.18;7.17;;;;;;;3.74;74.31;100658.13;2128557;83;33598;-66
2021/04/16 03:53:50;;;;;;;7.85;6.90;;;;;;;3.71;74.44;100658.20;2129278;82;29161;-66
2021/04/16 03:56:52;;;;;;;7.67;6.40;;;;;;;3.68;74.51;100663.08;2159878;82;28158;-65
2021/04/16 03:59:56;;;;;;;10.78;8.45;;;;;;;3.70;74.58;100664.40;2148568;82;28841;-66
2021/04/16 04:02:59;;;;;;;10.10;8.43;;;;;;;3.71;74.66;100659.52;2145318;82;31602;-66
2021/04/16 04:06:02;;;;;;;13.28;11.22;;;;;;;3.75;74.66;100661.20;2128030;83;33220;-66
2021/04/16 04:09:06;;;;;;;12.23;9.30;;;;;;;3.77;74.72;100667.36;2130711;82;29227;-66
2021/04/16 04:12:10;;;;;;;11.53;9.93;;;;;;;3.82;74.79;100666.84;2150269;82;27791;-66
2021/04/16 04:15:14;;;;;;;11.30;9.33;;;;;;;3.83;74.78;100668.59;2136563;82;28823;-66
2021/04/16 04:18:16;;;;;;;12.20;10.20;;;;;;;3.86;74.75;100672.97;2138816;82;31145;-65
2021/04/16 04:21:18;;;;;;;12.00;9.75;;;;;;;3.88;74.83;100668.09;2165569;82;33242;-66
2021/04/16 04:24:21;;;;;;;10.35;9.35;;;;;;;3.86;74.74;100661.04;2163022;82;29167;-65
2021/04/16 04:27:23;;;;;;;10.08;8.68;;;;;;;3.85;74.81;100668.13;2165793;82;27619;-67
2021/04/16 04:30:30;;;;;;;7.80;7.00;;;;;;;3.84;74.75;100666.38;2134961;81;28813;-68
2021/04/16 04:33:32;;;;;;;13.60;8.95;;;;;;;3.84;74.82;100666.38;2148221;81;31252;-68
2021/04/16 04:36:34;;;;;;;11.75;9.08;;;;;;;3.86;74.84;100661.04;2111697;84;33141;-69
2021/04/16 04:39:43;;;;;;;9.95;8.55;;;;;;;3.90;74.94;100666.26;2147503;82;30044;-68
2021/04/16 04:42:46;;;;;;;11.53;10.32;;;;;;;3.93;75.02;100675.95;2147795;82;27668;-66
2021/04/16 04:45:48;;;;;;;11.53;10.32;;;;;;;3.97;74.97;100675.02;2154851;82;28821;-65
2021/04/16 04:48:50;;;;;;;16.90;13.40;;;;;;;3.98;75.01;100671.90;2148100;82;32584;-65
2021/04/16 04:52:18;;;;;;;14.78;11.28;;;;;;;4.01;75.05;100666.55;2162309;81;33115;-66
2021/04/16 04:55:28;;;;;;;14.83;11.57;;;;;;;4.03;75.06;100665.61;2141004;83;29173;-67
2021/04/16 04:58:30;;;;;;;11.78;9.83;;;;;;;4.05;75.04;100667.80;2141560;82;27637;-66
2021/04/16 05:01:32;;;;;;;12.60;10.08;;;;;;;4.07;74.95;100673.06;2148441;82;28826;-67
2021/04/16 05:04:35;;;;;;;10.38;7.37;;;;;;;4.13;75.07;100677.41;2156613;82;31217;-66
2021/04/16 05:07:37;;;;;;;10.43;8.78;;;;;;;4.17;75.00;100676.43;2111425;84;33554;-68
2021/04/16 05:10:39;;;;;;;12.45;9.55;;;;;;;4.20;75.02;100670.65;2149905;82;29175;-66
2021/04/16 05:13:41;;;;;;;10.18;8.73;;;;;;;4.25;75.08;100673.22;2142573;82;27649;-66
2021/04/16 05:16:43;;;;;;;12.13;8.55;;;;;;;4.29;75.07;100670.05;2161968;81;29809;-65
2021/04/16 05:19:46;;;;;;;13.20;9.45;;;;;;;4.33;75.01;100673.08;2141287;82;31233;-66
2021/04/16 05:22:48;;;;;;;11.90;8.53;;;;;;;4.33;75.02;100674.41;2113439;84;33111;-67
2021/04/16 05:25:50;;;;;;;8.58;7.67;;;;;;;4.34;75.03;100669.06;2190538;80;29163;-66
2021/04/16 05:28:51;;;;;;;9.90;8.10;;;;;;;4.35;75.11;100669.95;2204038;80;28231;-67
2021/04/16 05:31:54;;;;;;;9.85;7.42;;;;;;;4.37;75.12;100677.43;2169608;81;28887;-67
2021/04/16 05:34:56;;;;;;;12.60;8.38;;;;;;;4.40;75.14;100677.35;2188051;80;31064;-66
2021/04/16 05:37:58;;;;;;;14.73;9.45;;;;;;;4.47;75.13;100683.45;2178646;81;33134;-68
2021/04/16 05:41:01;;;;;;;18.82;10.85;;;;;;;4.48;75.00;100675.45;2179502;79;29250;-66
2021/04/16 05:44:03;;;;;;;14.38;10.38;;;;;;;4.51;75.05;100681.14;2185305;80;27752;-67
2021/04/16 05:47:06;;;;;;;13.45;9.28;;;;;;;4.54;75.17;100683.74;2178865;81;28864;-66
2021/04/16 05:50:10;;;;;;;12.53;9.35;;;;;;;4.53;75.03;100685.97;2179465;80;31219;-68
2021/04/16 05:53:12;;;;;;;12.88;9.95;;;;;;;4.51;75.09;100690.42;2178861;81;34009;-67
2021/04/16 05:56:15;;;;;;;11.70;9.63;;;;;;;4.51;75.10;100693.97;2178755;81;29189;-66
2021/04/16 05:59:19;;;;;;;12.10;9.25;;;;;;;4.53;75.29;100688.63;2192256;80;27774;-67
2021/04/16 06:02:35;;;;;;;10.23;7.53;;;;;;;4.54;75.34;100692.59;2140235;83;28835;-66
2021/04/16 06:05:38;;;;;;;11.53;8.13;;;;;;;4.60;75.32;100692.93;2179466;80;32123;-68
2021/04/16 06:08:42;;;;;;;13.58;9.88;;;;;;;4.65;75.30;100689.72;2196615;80;33999;-67
2021/04/16 06:11:45;;;;;;;13.85;11.15;;;;;;;4.73;75.36;100690.03;2216660;80;30185;-66
2021/04/16 06:14:48;;;;;;;11.03;9.58;;;;;;;4.78;75.29;100693.02;2196772;80;27703;-67
2021/04/16 06:17:51;;;;;;;9.68;7.60;;;;;;;4.80;75.33;100691.68;2194441;80;28832;-66
2021/04/16 06:20:53;;;;;;;10.70;8.13;;;;;;;4.84;75.30;100683.63;2217382;80;32124;-65
2021/04/16 06:23:56;;;;;;;11.88;9.28;;;;;;;4.88;75.30;100687.08;2216567;80;33152;-67
2021/04/16 06:26:58;;;;;;;8.90;7.35;;;;;;;4.90;75.22;100691.91;2185474;80;29201;-67
2021/04/16 06:30:00;;;;;;;9.15;7.05;;;;;;;4.93;75.34;100687.87;2194961;80;28166;-66
2021/04/16 06:33:26;;;;;;;8.70;7.30;;;;;;;4.97;75.28;100690.00;2217314;80;31094;-66
2021/04/16 06:36:28;;;;;;;5.92;4.90;;;;;;;4.97;75.23;100693.52;2204564;80;31581;-67
2021/04/16 06:39:31;;;;;;;11.65;6.90;;;;;;;4.99;75.27;100690.85;2178578;80;32736;-67
2021/04/16 06:42:34;;;;;;;25.20;12.65;;;;;;;5.08;75.38;100693.30;2143371;81;29589;-66
2021/04/16 06:45:37;;;;;;;11.90;8.38;;;;;;;5.13;75.19;100690.11;2206070;80;27622;-66
2021/04/16 06:48:39;;;;;;;13.32;10.85;;;;;;;5.19;75.25;100687.78;2210869;80;29810;-68
2021/04/16 06:51:56;;;;;;;13.85;9.95;;;;;;;5.25;75.34;100688.09;2171132;80;31149;-66
2021/04/16 06:55:16;;;;;;;20.90;16.55;;;;;;;5.31;75.32;100688.83;2177913;80;33288;-68
2021/04/16 06:58:33;;;;;;;21.17;18.82;;;;;;;5.36;75.21;100687.43;2215504;80;30288;-65
2021/04/16 07:01:53;;;;;;;17.48;12.95;;;;;;;5.40;75.24;100685.10;2216935;80;27611;-65
2021/04/16 07:04:57;;;;;;;12.88;9.08;;;;;;;5.43;75.15;100684.18;2217337;80;28840;-66
2021/04/16 07:08:00;;;;;;;12.40;8.38;;;;;;;5.44;75.00;100691.25;2181634;80;31170;-65
2021/04/16 07:11:13;;;;;;;13.80;7.60;;;;;;;5.43;75.15;100690.36;2203771;80;33977;-66
2021/04/16 07:14:39;;;;;;;17.37;11.83;;;;;;;5.48;75.09;100692.47;2170427;80;29248;-67
2021/04/16 07:17:44;;;;;;;14.18;10.72;;;;;;;5.54;75.05;100695.91;2130859;83;27802;-66
2021/04/16 07:20:46;;;;;;;14.13;10.20;;;;;;;5.59;75.12;100692.23;2133484;82;32593;-64
2021/04/16 07:23:58;;;;;;;13.10;9.00;;;;;;;5.70;75.09;100691.09;2134619;83;32131;-66
2021/04/16 07:27:23;;;;;;;18.55;13.10;;;;;;;5.71;74.99;100689.72;2098651;83;33319;-68
2021/04/16 07:30:38;;;;;;;12.47;9.30;;;;;;;5.76;74.94;100693.16;2057531;86;29169;-68
2021/04/16 07:33:42;;;;;;;12.95;9.70;;;;;;;5.79;74.85;100686.91;2050067;84;27837;-62
2021/04/16 07:36:45;;;;;;;10.18;7.65;;;;;;;5.84;74.95;100696.96;2056309;86;29786;-61
2021/04/16 07:40:00;;;;;;;19.20;11.93;;;;;;;5.85;74.84;100691.20;2099152;83;31093;-62
2021/04/16 07:43:04;;;;;;;13.32;10.93;;;;;;;5.86;74.78;100701.80;2106801;83;33119;-62
2021/04/16 07:46:09;;;;;;;17.30;10.80;;;;;;;5.85;74.65;100696.05;2097389;83;28952;-61
2021/04/16 07:49:20;;;;;;;17.10;13.13;;;;;;;5.86;74.62;100703.59;2102548;83;28307;-62
2021/04/16 07:52:45;;;;;;;17.73;12.47;;;;;;;5.95;74.55;100702.03;2231452;77;27817;-62
2021/04/16 07:55:52;;;;;;;13.75;11.53;;;;;;;5.91;74.53;100698.58;2186025;80;27699;-63
2021/04/16 07:59:13;;;;;;;16.65;11.40;;;;;;;5.92;74.48;100708.31;2159921;80;29240;-62
2021/04/16 08:02:20;;;;;;;18.37;12.88;;;;;;;5.96;74.58;100703.78;2182350;80;31156;-63
2021/04/16 08:05:27;;;;;;;17.50;11.43;;;;;;;6.02;74.56;100707.67;2194682;78;33105;-62
2021/04/16 08:08:34;;;;;;;20.72;13.05;;;;;;;6.05;74.52;100710.22;2186820;80;29068;-62
2021/04/16 08:11:37;;;;;;;16.12;11.83;;;;;;;6.08;74.47;100710.16;2206749;80;28118;-63
2021/04/16 08:14:43;;;;;;;22.20;16.73;;;;;;;6.12;74.39;100710.09;2191246;80;28825;-62
2021/04/16 08:17:46;;;;;;;26.17;18.30;;;;;;;6.12;74.19;100710.09;2190924;78;32556;-62
2021/04/16 08:21:08;;;;;;;16.07;11.43;;;;;;;6.13;74.29;100699.39;2182106;80;33985;-63
2021/04/16 08:24:25;;;;;;;14.30;9.43;;;;;;;6.15;74.16;100706.89;2197161;80;36861;-62
2021/04/16 08:27:40;;;;;;;17.55;11.12;;;;;;;6.21;73.95;100708.08;2172120;80;27754;-64
2021/04/16 08:31:07;;;;;;;13.70;10.68;;;;;;;6.21;73.80;100716.50;2157426;81;29726;-63
2021/04/16 08:34:16;;;;;;;19.62;13.00;;;;;;;6.21;73.84;100711.17;2140900;82;31143;-61
2021/04/16 08:37:26;;;;;;;18.50;12.80;;;;;;;6.26;73.95;100713.28;2132165;81;33127;-62
2021/04/16 08:40:40;;;;;;;15.23;10.82;;;;;;;6.25;73.76;100713.33;2128917;82;29728;-62
2021/04/16 08:43:49;;;;;;;16.27;10.50;;;;;;;6.28;73.86;100717.25;2139296;82;27983;-63
2021/04/16 08:46:55;;;;;;;22.73;13.35;;;;;;;6.27;73.67;100715.02;2132349;82;29111;-65
2021/04/16 08:49:57;;;;;;;;;;;;;;;6.25;73.64;100718.65;2137748;81;31142;-63
2021/04/16 08:53:04;;;;;;;15.03;11.57;;;;;;;6.27;73.74;100720.82;2162464;81;33992;-62
2021/04/16 08:56:29;;;;;;;14.30;9.85;;;;;;;6.26;73.80;100723.92;2147017;81;28905;-62
2021/04/16 08:59:52;;;;;;;18.85;13.22;;;;;;;6.29;73.77;100718.52;2150236;81;27723;-62
2021/04/16 09:02:58;;;;;;;19.55;12.88;;;;;;;6.35;73.81;100718.38;2153093;81;29234;-62
2021/04/16 09:06:03;;;;;;;20.12;13.62;;;;;;;6.41;73.80;100721.34;2115159;83;30505;-62
2021/04/16 09:09:09;;;;;;;13.38;10.05;;;;;;;6.46;73.66;100723.41;2115375;83;33128;-62
2021/04/16 09:12:40;;;;;;;10.98;7.85;;;;;;;6.54;73.80;100717.44;2108152;83;28934;-60
2021/04/16 09:15:43;;;;;;;9.70;7.25;;;;;;;6.59;73.49;100725.77;2149901;82;27717;-64
2021/04/16 09:18:51;;;;;;;18.32;9.93;;;;;;;6.62;73.38;100727.89;2123565;82;28826;-60
2021/04/16 09:22:10;;;;;;;10.95;7.85;;;;;;;6.67;73.33;100727.76;2134242;82;31347;-61
2021/04/16 09:25:43;;;;;;;16.97;9.70;;;;;;;6.63;73.15;100726.08;2134982;82;33074;-61
2021/04/16 09:28:55;;;;;;;17.07;11.25;;;;;;;6.66;73.08;100727.34;2135391;82;29292;-61
2021/04/16 09:32:01;;;;;;;10.78;7.58;;;;;;;6.63;73.07;100724.75;2137381;82;28210;-61
2021/04/16 09:35:20;;;;;;;10.08;7.55;;;;;;;6.60;72.96;100725.72;2147500;82;28824;-64
2021/04/16 09:38:27;;;;;;;12.55;8.10;;;;;;;6.58;72.93;100732.01;2148959;82;32167;-62
2021/04/16 09:41:34;;;;;;;10.38;5.25;;;;;;;6.54;72.82;100740.06;2138966;82;33311;-64
2021/04/16 09:44:43;;;;;;;11.88;6.25;;;;;;;6.47;72.74;100741.13;2138316;82;28870;-65
2021/04/16 09:47:51;;;;;;;8.60;6.87;;;;;;;6.42;72.36;100737.73;2141846;82;27792;-62
2021/04/16 09:51:04;;;;;;;6.92;5.92;;;;;;;6.37;72.45;100742.28;2138283;82;28837;-62
2021/04/16 09:54:15;;;;;;;9.43;6.75;;;;;;;6.36;72.49;100742.75;2156086;82;31148;-63
2021/04/16 09:57:24;;;;;;;15.10;10.45;;;;;;;6.33;72.59;100737.94;2153595;82;35460;-63
2021/04/16 10:00:55;;;;;;;15.75;10.03;;;;;;;6.38;72.93;100744.89;2149787;82;28872;-62
2021/04/16 10:04:07;;;;;;;11.50;8.65;;;;;;;6.47;73.09;100750.44;2144100;82;27636;-61
2021/04/16 10:07:09;;;;;;;16.20;9.18;;;;;;;6.44;72.70;100741.23;2147942;82;28813;-62
2021/04/16 10:10:42;;;;;;;47.20;20.23;;;;;;;6.44;72.75;100741.23;2136210;82;31555;-62
2021/04/16 10:13:44;;;;;;;16.57;10.48;;;;;;;6.41;72.72;100746.63;2149051;82;33199;-62
2021/04/16 10:16:54;;;;;;;12.95;8.68;;;;;;;6.42;72.79;100744.38;2170269;82;28858;-61
2021/04/16 10:20:08;;;;;;;13.25;8.55;;;;;;;6.43;72.76;100741.25;2137254;82;27582;-61
2021/04/16 10:23:34;;;;;;;24.90;14.47;;;;;;;6.42;72.64;100733.73;2112612;83;28823;-61
2021/04/16 12:39:45;;;;;;;16.42;10.80;;;;;;;7.34;70.70;100736.59;2113856;84;33719;-63
2021/04/16 12:42:48;;;;;;;18.95;10.63;;;;;;;7.35;70.78;100733.87;2108813;84;28856;-63
2021/04/16 12:45:55;;;;;;;21.20;11.15;;;;;;;7.37;70.62;100736.48;2108867;84;27629;-62
2021/04/16 12:49:00;;;;;;;21.97;12.10;;;;;;;7.42;70.83;100734.12;2107115;84;28876;-63
2021/04/16 12:52:05;;;;;;;20.63;11.57;;;;;;;7.53;70.85;100731.58;2108124;84;32066;-63
2021/04/16 12:55:08;;;;;;;15.43;9.70;;;;;;;7.56;70.81;100724.83;2093090;84;34437;-63
2021/04/16 12:58:18;;;;;;;21.48;13.50;;;;;;;7.60;70.66;100727.82;2093167;85;28113;-63
2021/04/16 13:01:25;;;;;;;26.12;14.70;;;;;;;7.64;70.59;100721.92;2092700;85;27684;-63
2021/04/16 13:04:27;;;;;;;34.45;22.80;;;;;;;7.59;70.23;100726.07;2093337;85;28842;-63
2021/04/16 13:07:30;;;;;;;22.45;15.48;;;;;;;7.57;70.51;100727.44;2093065;83;33380;-62
2021/04/16 13:10:33;;;;;;;20.32;12.25;;;;;;;7.58;70.45;100719.85;2093123;85;33127;-63
2021/04/16 13:13:36;;;;;;;20.00;10.50;;;;;;;7.62;70.39;100719.28;2092882;85;30296;-63
2021/04/16 13:16:39;;;;;;;26.55;16.50;;;;;;;7.58;70.09;100707.00;2092941;85;27710;-63
2021/04/16 13:19:43;;;;;;;20.92;13.08;;;;;;;7.56;70.22;100707.50;2093135;85;31156;-62
2021/04/16 13:22:46;;;;;;;19.40;11.93;;;;;;;7.51;70.11;100709.42;2092683;85;31162;-63
2021/04/16 13:25:48;;;;;;;15.65;10.53;;;;;;;7.43;70.22;100703.88;2093135;84;34109;-62
2021/04/16 13:28:52;;;;;;;14.93;11.33;;;;;;;7.38;70.06;100696.47;2093138;85;28874;-62
2021/04/16 13:31:54;;;;;;;20.60;11.68;;;;;;;7.38;70.05;100704.47;2093210;85;27733;-62
2021/04/16 13:34:58;;;;;;;13.95;9.38;;;;;;;7.36;70.03;100700.97;2093112;85;28854;-62
2021/04/16 13:38:06;;;;;;;14.18;9.98;;;;;;;7.32;69.94;100705.97;2093139;84;31148;-62
2021/04/16 13:41:08;;;;;;;15.30;11.12;;;;;;;7.30;69.96;100700.70;2082029;85;33321;-64
2021/04/16 13:44:11;;;;;;;19.70;11.50;;;;;;;7.27;70.04;100700.78;2076341;85;29815;-63
2021/04/16 13:47:22;;;;;;;16.45;9.28;;;;;;;7.23;69.83;100700.92;2076479;85;27698;-62
2021/04/16 13:50:24;;;;;;;10.55;7.67;;;;;;;7.13;69.88;100697.65;2023671;87;28801;-63
2021/04/16 13:53:27;;;;;;;13.28;7.65;;;;;;;7.04;69.86;100705.89;2076278;85;31165;-62
2021/04/16 13:56:29;;;;;;;13.22;7.22;;;;;;;6.96;69.86;100710.10;2023790;87;35448;-62
2021/04/16 13:59:33;;;;;;;9.90;7.87;;;;;;;6.91;70.06;100710.71;2076340;85;30242;-62
2021/04/16 14:02:40;;;;;;;12.58;7.40;;;;;;;6.85;70.15;100709.09;2024031;87;27571;-62
2021/04/16 14:05:47;;;;;;;13.60;7.97;;;;;;;6.80;70.12;100712.33;2075990;85;28836;-62
2021/04/16 14:09:00;;;;;;;14.85;8.68;;;;;;;6.75;70.09;100714.23;2023128;87;31478;-62
2021/04/16 14:12:05;;;;;;;16.42;9.75;;;;;;;6.76;70.07;100711.99;2076350;85;33910;-63
2021/04/16 14:15:09;;;;;;;18.15;7.37;;;;;;;6.78;70.31;100716.83;2023593;86;29772;-62
2021/04/16 14:18:16;;;;;;;14.75;8.38;;;;;;;6.81;70.16;100717.61;2076332;85;27600;-62
2021/04/16 14:21:21;;;;;;;15.70;9.35;;;;;;;6.86;70.21;100714.84;2035740;87;28395;-62
2021/04/16 14:24:24;;;;;;;10.25;7.42;;;;;;;6.88;70.05;100719.64;2000988;88;31241;-62
2021/04/16 14:27:26;;;;;;;12.68;7.83;;;;;;;6.92;70.09;100704.47;2058644;86;33184;-61
2021/04/16 14:30:32;;;;;;;13.08;8.10;;;;;;;6.99;70.14;100704.70;2058900;86;29289;-62
2021/04/16 14:33:38;;;;;;;11.73;7.55;;;;;;;7.03;70.04;100702.84;2059047;86;28040;-62
2021/04/16 14:36:40;;;;;;;14.90;8.60;;;;;;;7.02;69.96;100701.95;2058977;86;28830;-62
2021/04/16 14:39:42;;;;;;;15.48;8.63;;;;;;;7.00;69.85;100701.12;2060119;85;32487;-62
2021/04/16 14:42:45;;;;;;;12.53;7.62;;;;;;;6.95;69.93;100699.06;2093336;84;34070;-62
2021/04/16 14:45:50;;;;;;;11.33;7.75;;;;;;;6.92;69.87;100709.80;2093454;85;30015;-61
2021/04/16 14:48:54;;;;;;;;;;;;;;;6.89;69.93;100715.20;2095182;84;27811;-63
2021/04/16 14:51:59;;;;;;;12.15;8.25;;;;;;;6.86;69.87;100714.84;2093343;84;29467;-62
2021/04/16 14:55:05;;;;;;;12.43;8.23;;;;;;;6.81;70.03;100712.28;2093146;85;31141;-62
2021/04/16 14:58:09;;;;;;;13.75;8.15;;;;;;;6.76;70.00;100709.33;2093527;84;33132;-61
2021/04/16 15:01:14;;;;;;;18.15;10.05;;;;;;;6.73;70.23;100721.39;2093353;85;28850;-61
2021/04/16 15:04:16;;;;;;;14.47;9.75;;;;;;;6.68;70.14;100710.43;2093786;84;32944;-61
2021/04/16 15:07:19;;;;;;;18.62;10.43;;;;;;;6.65;70.10;100717.16;2093484;85;29266;-61
2021/04/16 15:10:31;;;;;;;22.10;12.90;;;;;;;6.61;70.27;100711.49;2093429;85;31134;-61
2021/04/16 15:13:36;;;;;;;20.30;9.38;;;;;;;6.58;70.41;100714.23;2093562;85;33974;-61
2021/04/16 15:16:47;;;;;;;16.55;11.93;;;;;;;6.58;70.58;100714.23;2093510;84;29951;-62
2021/04/16 15:19:53;;;;;;;40.30;26.33;;;;;;;6.59;70.54;100717.78;2085366;85;27693;-63
2021/04/16 15:22:58;;;;;;;18.17;12.45;;;;;;;6.63;70.87;100714.10;2079913;85;30290;-60
2021/04/16 15:26:02;;;;;;;21.50;13.35;;;;;;;6.69;70.84;100720.61;2093461;84;32573;-61
2021/04/16 15:29:10;;;;;;;23.55;14.43;;;;;;;6.75;70.99;100720.45;2092919;85;33151;-62
2021/04/16 15:32:19;;;;;;;23.02;16.00;;;;;;;6.76;70.78;100719.54;2070024;85;28888;-61
2021/04/16 15:48:48;;;;;;;18.37;12.60;;;;;;;6.61;70.92;100712.83;2076561;85;28878;-62
2021/04/16 15:51:50;;;;;;;21.57;11.38;;;;;;;6.53;70.87;100723.67;2076655;85;27644;-63
2021/04/16 15:58:14;;;;;;;16.47;9.20;;;;;;;6.45;71.22;100712.81;2248735;78;31922;-61
2021/04/16 16:01:20;;;;;;;14.55;9.98;;;;;;;6.38;71.22;100712.09;2191325;79;27967;-62
2021/04/16 16:04:22;;;;;;;15.75;7.90;;;;;;;6.38;71.29;100710.77;2188771;81;29843;-62
2021/04/16 16:07:24;;;;;;;22.48;12.93;;;;;;;6.34;71.14;100707.32;2189532;81;31146;-62
2021/04/16 16:10:28;;;;;;;36.98;21.12;;;;;;;6.36;71.47;100704.17;2189507;79;33127;-62
2021/04/16 16:13:39;;;;;;;42.10;22.02;;;;;;;6.43;71.66;100703.98;2189809;79;28549;-61
2021/04/16 16:16:44;;;;;;;35.68;21.77;;;;;;;6.47;71.69;100710.98;2189680;79;27777;-63
2021/04/16 16:19:46;;;;;;;32.45;20.00;;;;;;;6.51;71.72;100708.20;2181396;81;29843;-61
2021/04/16 16:22:49;;;;;;;31.35;20.20;;;;;;;6.53;71.76;100713.03;2218224;80;31153;-62
2021/04/16 16:25:51;;;;;;;26.30;15.65;;;;;;;6.51;71.69;100713.99;2199877;80;34421;-62
2021/04/16 16:29:00;;;;;;;28.60;12.73;;;;;;;6.49;71.60;100707.83;2179155;80;29826;-62
2021/04/16 16:32:07;;;;;;;22.00;13.32;;;;;;;6.47;71.69;100707.00;2149607;82;27683;-60
2021/04/16 16:35:15;;;;;;;24.27;12.00;;;;;;;6.45;71.78;100702.16;2182437;80;29712;-61
2021/04/16 16:38:20;;;;;;;24.77;15.70;;;;;;;6.45;71.85;100703.05;2139082;82;31136;-62
2021/04/16 16:41:23;;;;;;;28.83;12.37;;;;;;;6.49;71.82;100699.38;2120390;83;33114;-62
2021/04/16 16:44:29;;;;;;;19.50;12.25;;;;;;;6.49;71.75;100694.52;2198578;80;29897;-62
2021/04/16 16:47:31;;;;;;;23.32;13.40;;;;;;;6.50;71.76;100698.47;2207789;80;28335;-62
2021/04/16 16:50:39;;;;;;;21.23;10.75;;;;;;;6.51;71.78;100698.02;2197271;80;28819;-62
2021/04/16 16:53:41;;;;;;;20.65;12.20;;;;;;;6.51;71.79;100696.22;2181265;80;32335;-65
2021/04/16 16:56:44;;;;;;;26.15;16.50;;;;;;;6.50;71.82;100695.80;2182186;80;34251;-60